createdAt,value
2023-04-12T00:00:10.858Z,12.04
2023-04-12T00:02:38.289Z,12.04
2023-04-12T00:05:05.194Z,12.04
2023-04-12T00:07:32.280Z,12.04
2023-04-12T00:09:58.768Z,12.06
2023-04-12T00:12:25.357Z,12.05
2023-04-12T00:14:51.780Z,12.06
2023-04-12T00:17:19.338Z,12.05
2023-04-12T00:19:47.611Z,12.05
2023-04-12T00:22:16.060Z,12.04
2023-04-12T00:24:42.566Z,12.03
2023-04-12T00:27:09.082Z,12.03
2023-04-12T00:29:35.693Z,12.03
2023-04-12T00:32:03.754Z,12.01
2023-04-12T00:34:30.408Z,12.00
2023-04-12T00:36:57.034Z,11.99
2023-04-12T00:39:23.499Z,11.97
2023-04-12T00:41:49.988Z,11.95
2023-04-12T00:44:18.000Z,11.93
2023-04-12T00:46:46.356Z,11.90
2023-04-12T00:49:13.370Z,11.89
2023-04-12T00:51:40.292Z,11.87
2023-04-12T00:54:07.716Z,11.86
2023-04-12T00:56:34.727Z,11.84
2023-04-12T00:59:02.135Z,11.84
2023-04-12T01:01:28.691Z,11.83
2023-04-12T01:04:00.923Z,11.83
2023-04-12T01:06:40.616Z,11.82
2023-04-12T01:09:40.423Z,11.78
2023-04-12T01:12:41.413Z,11.78
2023-04-12T01:15:12.009Z,11.78
2023-04-12T01:17:49.712Z,11.76
2023-04-12T01:20:21.693Z,11.75
2023-04-12T01:23:03.777Z,11.72
2023-04-12T01:25:48.240Z,11.70
2023-04-12T01:28:20.261Z,11.73
2023-04-12T01:30:50.389Z,11.72
2023-04-12T01:33:18.395Z,11.73
2023-04-12T01:35:46.809Z,11.72
2023-04-12T01:38:13.777Z,11.73
2023-04-12T01:40:43.156Z,11.73
2023-04-12T01:43:14.369Z,11.71
2023-04-12T01:45:40.880Z,11.73
2023-04-12T01:48:12.035Z,11.71
2023-04-12T01:50:49.821Z,11.71
2023-04-12T01:53:27.541Z,11.71
2023-04-12T01:55:59.447Z,11.72
2023-04-12T01:58:27.011Z,11.72
2023-04-12T02:00:57.155Z,11.70
2023-04-12T02:03:24.668Z,11.67
2023-04-12T02:05:52.098Z,11.64
2023-04-12T02:08:18.514Z,11.61
2023-04-12T02:10:44.932Z,11.59
2023-04-12T02:13:11.853Z,11.56
2023-04-12T02:15:38.613Z,11.54
2023-04-12T02:18:05.153Z,11.52
2023-04-12T02:20:31.595Z,11.51
2023-04-12T02:22:58.066Z,11.50
2023-04-12T02:25:24.427Z,11.50
2023-04-12T02:27:51.196Z,11.50
2023-04-12T02:30:17.758Z,11.52
2023-04-12T02:32:45.529Z,11.55
2023-04-12T02:35:14.235Z,11.56
2023-04-12T02:37:41.199Z,11.58
2023-04-12T02:40:11.368Z,11.58
2023-04-12T02:42:37.772Z,11.60
2023-04-12T02:45:04.771Z,11.60
2023-04-12T02:47:31.295Z,11.60
2023-04-12T02:49:58.098Z,11.60
2023-04-12T02:52:24.460Z,11.60
2023-04-12T02:54:52.403Z,11.59
2023-04-12T02:57:21.115Z,11.61
2023-04-12T02:59:48.804Z,11.61
2023-04-12T03:02:15.413Z,11.59
2023-04-12T03:04:42.067Z,11.58
2023-04-12T03:07:08.437Z,11.57
2023-04-12T03:09:34.865Z,11.54
2023-04-12T03:12:02.084Z,11.49
2023-04-12T03:14:28.509Z,11.46
2023-04-12T03:16:54.953Z,11.45
2023-04-12T03:19:21.376Z,11.42
2023-04-12T03:21:47.747Z,11.43
2023-04-12T03:24:14.133Z,11.41
2023-04-12T03:26:42.094Z,11.42
2023-04-12T03:29:10.081Z,11.41
2023-04-12T03:31:37.881Z,11.43
2023-04-12T03:34:04.430Z,11.43
2023-04-12T03:36:31.274Z,11.43
2023-04-12T03:38:57.647Z,11.43
2023-04-12T03:41:24.162Z,11.45
2023-04-12T03:43:50.628Z,11.45
2023-04-12T03:46:17.259Z,11.47
2023-04-12T03:48:43.829Z,11.49
2023-04-12T03:51:12.233Z,11.48
2023-04-12T03:53:39.225Z,11.49
2023-04-12T03:56:06.279Z,11.47
2023-04-12T03:58:33.980Z,11.47
2023-04-12T04:01:05.996Z,11.44
2023-04-12T04:03:35.097Z,11.45
2023-04-12T04:06:02.347Z,11.44
2023-04-12T04:08:29.752Z,11.44
2023-04-12T04:11:00.317Z,11.40
2023-04-12T04:13:26.697Z,11.41
2023-04-12T04:16:00.699Z,11.37
2023-04-12T04:21:19.705Z,11.33
2023-04-12T04:23:47.904Z,11.30
2023-04-12T04:26:15.731Z,11.26
2023-04-12T04:28:44.931Z,11.24
2023-04-12T04:31:12.728Z,11.21
2023-04-12T04:33:40.290Z,11.19
2023-04-12T04:36:07.904Z,11.18
2023-04-12T04:38:34.374Z,11.17
2023-04-12T04:41:04.569Z,11.18
2023-04-12T04:43:31.420Z,11.18
2023-04-12T04:45:58.310Z,11.20
2023-04-12T04:48:25.149Z,11.23
2023-04-12T04:50:51.763Z,11.24
2023-04-12T04:53:19.821Z,11.25
2023-04-12T04:55:47.794Z,11.27
2023-04-12T04:58:16.220Z,11.27
2023-04-12T05:00:44.934Z,11.29
2023-04-12T05:03:12.000Z,11.29
2023-04-12T05:05:39.039Z,11.30
2023-04-12T05:08:05.986Z,11.29
2023-04-12T05:10:32.489Z,11.31
2023-04-12T05:12:59.000Z,11.32
2023-04-12T05:15:25.580Z,11.32
2023-04-12T05:17:52.183Z,11.33
2023-04-12T05:20:18.911Z,11.34
2023-04-12T05:22:45.392Z,11.35
2023-04-12T05:25:11.933Z,11.38
2023-04-12T05:27:38.752Z,11.39
2023-04-12T05:30:06.063Z,11.41
2023-04-12T05:32:32.707Z,11.45
2023-04-12T05:34:59.346Z,11.49
2023-04-12T05:37:27.969Z,11.51
2023-04-12T05:39:54.920Z,11.54
2023-04-12T05:42:21.347Z,11.55
2023-04-12T05:44:49.954Z,11.57
2023-04-12T05:47:16.950Z,11.59
2023-04-12T05:49:43.405Z,11.60
2023-04-12T05:52:10.024Z,11.64
2023-04-12T05:54:36.546Z,11.65
2023-04-12T05:57:03.266Z,11.67
2023-04-12T05:59:29.795Z,11.67
2023-04-12T06:01:57.016Z,11.67
2023-04-12T06:04:27.948Z,11.68
2023-04-12T06:06:58.853Z,11.68
2023-04-12T06:09:25.566Z,11.69
2023-04-12T06:11:53.218Z,11.70
2023-04-12T06:14:19.728Z,11.69
2023-04-12T06:16:46.201Z,11.68
2023-04-12T06:19:12.732Z,11.66
2023-04-12T06:21:39.281Z,11.64
2023-04-12T06:24:06.231Z,11.60
2023-04-12T06:26:39.433Z,11.58
2023-04-12T06:29:06.855Z,11.57
2023-04-12T06:31:33.394Z,11.56
2023-04-12T06:34:01.015Z,11.55
2023-04-12T06:36:27.471Z,11.55
2023-04-12T06:38:55.467Z,11.56
2023-04-12T06:41:22.163Z,11.55
2023-04-12T06:43:48.764Z,11.53
2023-04-12T06:46:18.632Z,11.52
2023-04-12T06:48:45.167Z,11.52
2023-04-12T06:51:11.689Z,11.52
2023-04-12T06:53:39.160Z,11.51
2023-04-12T06:56:06.155Z,11.50
2023-04-12T06:58:32.627Z,11.49
2023-04-12T07:01:10.063Z,11.47
2023-04-12T07:03:37.142Z,11.51
2023-04-12T07:06:13.775Z,11.51
2023-04-12T07:08:50.696Z,11.53
2023-04-12T07:11:21.628Z,11.53
2023-04-12T07:13:49.175Z,11.52
2023-04-12T07:16:15.965Z,11.51
2023-04-12T07:18:42.626Z,11.51
2023-04-12T07:21:09.193Z,11.51
2023-04-12T07:23:35.753Z,11.50
2023-04-12T07:26:02.655Z,11.49
2023-04-12T07:28:29.167Z,11.51
2023-04-12T07:30:55.884Z,11.49
2023-04-12T07:33:22.509Z,11.50
2023-04-12T07:35:49.178Z,11.52
2023-04-12T07:38:16.811Z,11.53
2023-04-12T07:40:43.779Z,11.53
2023-04-12T07:43:10.413Z,11.54
2023-04-12T07:45:37.711Z,11.54
2023-04-12T07:48:04.481Z,11.57
2023-04-12T07:50:31.208Z,11.60
2023-04-12T07:53:17.663Z,11.63
2023-04-12T07:55:44.157Z,11.65
2023-04-12T07:58:10.832Z,11.66
2023-04-12T08:00:37.311Z,11.68
2023-04-12T08:03:04.056Z,11.69
2023-04-12T08:05:31.002Z,11.70
2023-04-12T08:07:57.834Z,11.71
2023-04-12T08:10:24.682Z,11.73
2023-04-12T08:12:51.221Z,11.74
2023-04-12T08:15:17.818Z,11.78
2023-04-12T08:17:44.630Z,11.79
2023-04-12T08:20:12.174Z,11.80
2023-04-12T08:22:38.739Z,11.81
2023-04-12T08:25:05.689Z,11.82
2023-04-12T08:27:32.215Z,11.83
2023-04-12T08:29:58.718Z,11.84
2023-04-12T08:32:25.683Z,11.85
2023-04-12T08:34:52.322Z,11.88
2023-04-12T08:37:18.888Z,11.87
2023-04-12T08:39:45.423Z,11.83
2023-04-12T08:42:16.624Z,11.78
2023-04-12T08:44:43.890Z,11.74
2023-04-12T08:47:11.686Z,11.71
2023-04-12T08:49:38.621Z,11.71
2023-04-12T08:52:07.305Z,11.70
2023-04-12T08:54:34.862Z,11.73
2023-04-12T08:57:04.827Z,11.75
2023-04-12T08:59:33.125Z,11.75
2023-04-12T09:01:59.838Z,11.75
2023-04-12T09:04:26.812Z,11.73
2023-04-12T09:06:53.633Z,11.70
2023-04-12T09:09:20.241Z,11.70
2023-04-12T09:11:46.725Z,11.70
2023-04-12T09:14:24.652Z,11.66
2023-04-12T09:16:51.961Z,11.69
2023-04-12T09:19:31.971Z,11.66
2023-04-12T09:21:58.923Z,11.73
2023-04-12T09:24:25.613Z,11.78
2023-04-12T09:27:05.601Z,11.81
2023-04-12T09:29:33.308Z,11.89
2023-04-12T09:32:04.192Z,11.94
2023-04-12T09:34:33.782Z,12.02
2023-04-12T09:37:12.088Z,12.06
2023-04-12T09:39:40.185Z,12.07
2023-04-12T09:42:21.417Z,12.07
2023-04-12T09:44:57.440Z,12.07
2023-04-12T09:47:41.002Z,12.01
2023-04-12T09:50:09.564Z,12.02
2023-04-12T09:52:38.295Z,11.99
2023-04-12T09:55:11.535Z,11.95
2023-04-12T09:57:43.263Z,11.94
2023-04-12T10:00:20.382Z,11.93
2023-04-12T10:02:52.767Z,11.89
2023-04-12T10:05:26.362Z,11.85
2023-04-12T10:07:53.677Z,11.86
2023-04-12T10:10:21.195Z,11.85
2023-04-12T10:12:49.401Z,11.86
2023-04-12T10:15:21.160Z,11.84
2023-04-12T10:17:57.777Z,11.83
2023-04-12T10:20:28.046Z,11.86
2023-04-12T10:22:56.341Z,11.86
2023-04-12T10:25:25.880Z,11.87
2023-04-12T10:27:53.237Z,11.89
2023-04-12T10:30:27.523Z,11.84
2023-04-12T10:33:03.261Z,11.82
2023-04-12T10:35:48.653Z,11.82
2023-04-12T10:38:16.123Z,11.78
2023-04-12T10:41:13.473Z,11.68
2023-04-12T10:43:47.863Z,11.69
2023-04-12T10:46:40.031Z,11.63
2023-04-12T10:49:09.869Z,11.65
2023-04-12T10:51:37.039Z,11.64
2023-04-12T10:54:18.576Z,11.62
2023-04-12T10:56:49.161Z,11.67
2023-04-12T10:59:16.754Z,11.70
2023-04-12T11:02:12.928Z,11.72
2023-04-12T11:05:10.459Z,11.81
2023-04-12T11:07:42.101Z,11.93
2023-04-12T11:10:16.359Z,12.01
2023-04-12T11:12:55.291Z,12.11
2023-04-12T11:15:26.862Z,12.21
2023-04-12T11:17:57.905Z,12.30
2023-04-12T11:20:27.420Z,12.41
2023-04-12T11:22:54.952Z,12.52
2023-04-12T11:25:21.499Z,12.62
2023-04-12T11:27:52.651Z,12.68
2023-04-12T11:30:20.118Z,12.76
2023-04-12T11:32:47.513Z,12.83
2023-04-12T11:35:19.565Z,12.85
2023-04-12T11:37:46.152Z,12.89
2023-04-12T11:40:12.741Z,12.90
2023-04-12T11:42:40.268Z,12.89
2023-04-12T11:45:14.234Z,12.86
2023-04-12T11:47:44.291Z,12.82
2023-04-12T11:50:11.097Z,12.80
2023-04-12T11:52:37.681Z,12.77
2023-04-12T11:55:07.567Z,12.75
2023-04-12T11:57:34.872Z,12.74
2023-04-12T12:00:01.854Z,12.78
2023-04-12T12:02:32.361Z,12.82
2023-04-12T12:04:59.920Z,12.89
2023-04-12T12:07:27.857Z,12.96
2023-04-12T12:09:55.401Z,13.07
2023-04-12T12:12:23.636Z,13.18
2023-04-12T12:14:50.062Z,13.29
2023-04-12T12:17:17.335Z,13.40
2023-04-12T12:19:45.511Z,13.49
2023-04-12T12:22:21.578Z,13.54
2023-04-12T12:24:55.098Z,13.62
2023-04-12T12:27:34.037Z,13.67
2023-04-12T12:30:04.277Z,13.74
2023-04-12T12:32:35.528Z,13.76
2023-04-12T12:35:02.748Z,13.77
2023-04-12T12:37:31.053Z,13.71
2023-04-12T12:40:16.601Z,13.60
2023-04-12T12:42:48.700Z,13.59
2023-04-12T12:45:16.574Z,13.56
2023-04-12T12:47:51.892Z,13.48
2023-04-12T12:50:21.077Z,13.45
2023-04-12T12:52:49.325Z,13.42
2023-04-12T12:55:16.941Z,13.40
2023-04-12T12:57:51.939Z,13.40
2023-04-12T13:00:29.464Z,13.43
2023-04-12T13:02:56.657Z,13.49
2023-04-12T13:05:23.743Z,13.55
2023-04-12T13:07:50.238Z,13.62
2023-04-12T13:10:16.711Z,13.72
2023-04-12T13:12:43.170Z,13.85
2023-04-12T13:15:21.414Z,13.94
2023-04-12T13:17:49.196Z,14.10
2023-04-12T13:20:16.404Z,14.30
2023-04-12T13:22:43.074Z,14.63
2023-04-12T13:25:09.774Z,15.11
2023-04-12T13:27:36.613Z,15.72
2023-04-12T13:30:03.126Z,16.44
2023-04-12T13:32:29.655Z,17.20
2023-04-12T13:34:56.124Z,17.97
2023-04-12T13:37:22.625Z,18.72
2023-04-12T13:39:51.325Z,19.44
2023-04-12T13:42:17.878Z,20.16
2023-04-12T13:44:44.508Z,20.86
2023-04-12T13:47:11.132Z,21.57
2023-04-12T13:49:37.667Z,22.25
2023-04-12T13:52:04.225Z,22.88
2023-04-12T13:54:30.795Z,23.49
2023-04-12T13:56:58.163Z,24.00
2023-04-12T13:59:26.287Z,24.46
2023-04-12T14:01:53.174Z,24.84
2023-04-12T14:04:20.303Z,25.09
2023-04-12T14:06:46.903Z,25.26
2023-04-12T14:09:27.428Z,25.24
2023-04-12T14:11:55.847Z,25.26
2023-04-12T14:14:23.073Z,25.20
2023-04-12T14:16:52.111Z,25.20
2023-04-12T14:19:18.755Z,25.30
2023-04-12T14:21:46.738Z,25.46
2023-04-12T14:24:13.286Z,25.67
2023-04-12T14:26:40.068Z,25.79
2023-04-12T14:29:07.093Z,25.71
2023-04-12T14:31:34.889Z,25.45
2023-04-12T14:34:04.926Z,25.12
2023-04-12T14:36:33.588Z,24.74
2023-04-12T14:39:01.597Z,24.34
2023-04-12T14:41:28.345Z,23.88
2023-04-12T14:43:54.811Z,23.36
2023-04-12T14:46:21.491Z,22.79
2023-04-12T14:48:48.025Z,22.26
2023-04-12T14:51:14.516Z,21.72
2023-04-12T14:53:42.626Z,21.18
2023-04-12T14:56:28.693Z,20.52
2023-04-12T14:58:56.692Z,20.03
2023-04-12T15:01:24.102Z,19.52
2023-04-12T15:03:54.281Z,18.99
2023-04-12T15:06:22.961Z,18.41
2023-04-12T15:08:55.144Z,17.80
2023-04-12T15:11:27.421Z,17.21
2023-04-12T15:13:54.994Z,16.62
2023-04-12T15:16:22.233Z,16.05
2023-04-12T15:18:50.604Z,15.54
2023-04-12T15:21:17.201Z,15.09
2023-04-12T15:23:43.595Z,14.68
2023-04-12T15:26:10.561Z,14.32
2023-04-12T15:28:37.456Z,13.97
2023-04-12T15:31:04.642Z,13.68
2023-04-12T15:33:34.486Z,13.42
2023-04-12T15:36:02.030Z,13.23
2023-04-12T15:38:29.754Z,13.08
2023-04-12T15:40:58.857Z,12.94
2023-04-12T15:43:25.695Z,12.84
2023-04-12T15:45:56.273Z,12.76
2023-04-12T15:48:24.891Z,12.69
2023-04-12T15:50:52.793Z,12.66
2023-04-12T15:53:21.419Z,12.62
2023-04-12T15:55:48.580Z,12.61
2023-04-12T15:58:15.322Z,12.60
2023-04-12T16:00:42.276Z,12.59
2023-04-12T16:03:09.334Z,12.58
2023-04-12T16:05:36.193Z,12.57
2023-04-12T16:08:02.808Z,12.54
2023-04-12T16:10:30.332Z,12.53
2023-04-12T16:12:58.147Z,12.50
2023-04-12T16:15:24.708Z,12.48
2023-04-12T16:17:53.108Z,12.47
2023-04-12T16:20:23.090Z,12.47
2023-04-12T16:22:56.611Z,12.46
2023-04-12T16:25:24.535Z,12.43
2023-04-12T16:27:52.095Z,12.39
2023-04-12T16:30:18.588Z,12.35
2023-04-12T16:32:48.846Z,12.32
2023-04-12T16:35:16.461Z,12.27
2023-04-12T16:37:44.107Z,12.21
2023-04-12T16:40:12.444Z,12.14
2023-04-12T16:42:42.964Z,12.01
2023-04-12T16:45:11.069Z,11.92
2023-04-12T16:47:38.201Z,11.82
2023-04-12T16:50:07.770Z,11.72
2023-04-12T16:52:35.800Z,11.66
2023-04-12T16:55:02.509Z,11.60
2023-04-12T16:57:29.608Z,11.58
2023-04-12T16:59:57.103Z,11.57
2023-04-12T17:02:24.511Z,11.58
2023-04-12T17:04:51.276Z,11.63
2023-04-12T17:07:18.109Z,11.68
2023-04-12T17:09:44.598Z,11.72
2023-04-12T17:12:11.052Z,11.74
2023-04-12T17:14:37.423Z,11.75
2023-04-12T17:17:06.222Z,11.74
2023-04-12T17:19:33.006Z,11.70
2023-04-12T17:21:59.378Z,11.66
2023-04-12T17:24:26.375Z,11.59
2023-04-12T17:26:53.223Z,11.54
2023-04-12T17:29:20.330Z,11.49
2023-04-12T17:31:49.761Z,11.44
2023-04-12T17:34:18.549Z,11.39
2023-04-12T17:36:44.973Z,11.33
2023-04-12T17:39:11.430Z,11.25
2023-04-12T17:41:38.144Z,11.18
2023-04-12T17:44:06.747Z,11.10
2023-04-12T17:46:42.129Z,10.99
2023-04-12T17:49:13.329Z,10.94
2023-04-12T17:51:49.618Z,10.88
2023-04-12T17:54:27.411Z,10.82
2023-04-12T17:56:57.704Z,10.79
2023-04-12T17:59:33.897Z,10.72
2023-04-12T18:02:01.863Z,10.69
2023-04-12T18:04:29.635Z,10.64
2023-04-12T18:06:57.058Z,10.60
2023-04-12T18:09:24.642Z,10.57
2023-04-12T18:11:51.459Z,10.53
2023-04-12T18:14:20.267Z,10.49
2023-04-12T18:16:47.052Z,10.46
2023-04-12T18:19:16.123Z,10.43
2023-04-12T18:21:46.980Z,10.45
2023-04-12T18:24:13.496Z,10.43
2023-04-12T18:26:39.847Z,10.46
2023-04-12T18:29:06.393Z,10.45
2023-04-12T18:31:32.825Z,10.41
2023-04-12T18:33:59.444Z,10.37
2023-04-12T18:36:27.155Z,10.32
2023-04-12T18:38:53.533Z,10.26
2023-04-12T18:41:35.299Z,10.17
2023-04-12T18:44:02.043Z,10.14
2023-04-12T18:46:29.884Z,10.06
2023-04-12T18:48:56.964Z,9.98
2023-04-12T18:51:23.580Z,9.90
2023-04-12T18:53:53.565Z,9.83
2023-04-12T18:56:25.506Z,9.74
2023-04-12T18:58:55.636Z,9.70
2023-04-12T19:01:23.936Z,9.65
2023-04-12T19:03:51.107Z,9.62
2023-04-12T19:06:18.070Z,9.58
2023-04-12T19:08:44.472Z,9.54
2023-04-12T19:11:11.235Z,9.50
2023-04-12T19:13:38.288Z,9.46
2023-04-12T19:16:07.751Z,9.41
2023-04-12T19:18:34.536Z,9.38
2023-04-12T19:21:02.044Z,9.35
2023-04-12T19:23:28.876Z,9.32
2023-04-12T19:25:56.675Z,9.28
2023-04-12T19:28:23.056Z,9.23
2023-04-12T19:30:49.526Z,9.19
2023-04-12T19:33:15.890Z,9.14
2023-04-12T19:35:44.427Z,9.09
2023-04-12T19:39:03.974Z,8.99
2023-04-12T19:41:30.606Z,8.99
2023-04-12T19:43:57.333Z,8.96
2023-04-12T19:46:23.924Z,8.92
2023-04-12T19:48:51.287Z,8.87
2023-04-12T19:51:17.987Z,8.83
2023-04-12T19:53:46.158Z,8.80
2023-04-12T19:56:12.976Z,8.75
2023-04-12T19:58:40.725Z,8.72
2023-04-12T20:01:07.350Z,8.70
2023-04-12T20:03:33.734Z,8.67
2023-04-12T20:06:03.791Z,8.67
2023-04-12T20:08:30.324Z,8.64
2023-04-12T20:10:56.866Z,8.62
2023-04-12T20:13:23.310Z,8.58
2023-04-12T20:15:50.859Z,8.56
2023-04-12T20:18:17.914Z,8.53
2023-04-12T20:20:44.932Z,8.51
2023-04-12T20:23:14.538Z,8.47
2023-04-12T20:25:42.562Z,8.46
2023-04-12T20:28:09.344Z,8.45
2023-04-12T20:30:36.593Z,8.42
2023-04-12T20:33:03.963Z,8.38
2023-04-12T20:35:30.529Z,8.36
2023-04-12T20:37:57.565Z,8.34
2023-04-12T20:40:27.018Z,8.33
2023-04-12T20:42:53.444Z,8.32
2023-04-12T20:45:21.631Z,8.30
2023-04-12T20:47:48.216Z,8.28
2023-04-12T20:50:15.611Z,8.25
2023-04-12T20:52:41.984Z,8.25
2023-04-12T20:55:10.983Z,8.21
2023-04-12T20:57:37.341Z,8.21
2023-04-12T21:00:12.922Z,8.19
2023-04-12T21:02:40.555Z,8.17
2023-04-12T21:05:07.336Z,8.16
2023-04-12T21:07:33.747Z,8.14
2023-04-12T21:10:01.938Z,8.13
2023-04-12T21:12:31.453Z,8.12
2023-04-12T21:14:57.992Z,8.11
2023-04-12T21:17:25.128Z,8.09
2023-04-12T21:19:51.921Z,8.08
2023-04-12T21:22:18.278Z,8.06
2023-04-12T21:24:45.127Z,8.04
2023-04-12T21:27:12.115Z,8.03
2023-04-12T21:29:41.146Z,8.01
2023-04-12T21:32:08.814Z,7.99
2023-04-12T21:34:35.635Z,7.99
2023-04-12T21:37:04.180Z,7.95
2023-04-12T21:39:31.521Z,7.95
2023-04-12T21:41:58.091Z,7.93
2023-04-12T21:44:25.424Z,7.92
2023-04-12T21:46:51.963Z,7.92
2023-04-12T21:49:18.396Z,7.92
2023-04-12T21:51:46.774Z,7.91
2023-04-12T21:54:13.311Z,7.92
2023-04-12T21:56:39.703Z,7.93
2023-04-12T21:59:07.183Z,7.94
2023-04-12T22:01:34.489Z,7.96
2023-04-12T22:04:01.248Z,7.98
2023-04-12T22:06:27.756Z,8.00
2023-04-12T22:08:54.125Z,8.00
2023-04-12T22:11:20.637Z,8.02
2023-04-12T22:13:47.291Z,8.03
2023-04-12T22:16:14.017Z,8.03
2023-04-12T22:18:41.085Z,8.05
2023-04-12T22:23:50.425Z,8.07
2023-04-12T22:26:16.904Z,8.07
2023-04-12T22:28:44.167Z,8.09
2023-04-12T22:31:14.620Z,8.10
2023-04-12T22:33:41.493Z,8.12
2023-04-12T22:36:08.423Z,8.14
2023-04-12T22:38:35.559Z,8.16
2023-04-12T22:41:02.391Z,8.17
2023-04-12T22:43:42.152Z,8.16
2023-04-12T22:46:16.278Z,8.17
2023-04-12T22:48:47.772Z,8.17
2023-04-12T22:51:14.861Z,8.16
2023-04-12T22:53:41.312Z,8.19
2023-04-12T22:56:11.743Z,8.18
2023-04-12T22:58:40.129Z,8.18
2023-04-12T23:01:07.197Z,8.18
2023-04-12T23:03:33.653Z,8.17
2023-04-12T23:06:00.152Z,8.15
2023-04-12T23:08:26.577Z,8.16
2023-04-12T23:10:53.281Z,8.16
2023-04-12T23:13:19.828Z,8.15
2023-04-12T23:15:46.450Z,8.16
2023-04-12T23:18:13.022Z,8.16
2023-04-12T23:20:40.301Z,8.15
2023-04-12T23:23:06.885Z,8.16
2023-04-12T23:25:39.160Z,8.13
2023-04-12T23:28:12.573Z,8.13
2023-04-12T23:30:42.701Z,8.11
2023-04-12T23:33:12.388Z,8.10
2023-04-12T23:35:41.141Z,8.07
2023-04-12T23:38:08.802Z,8.04
2023-04-12T23:40:35.296Z,8.03
2023-04-12T23:43:02.007Z,8.02
2023-04-12T23:45:28.459Z,8.03
2023-04-12T23:47:54.864Z,8.04
2023-04-12T23:50:21.536Z,8.05
2023-04-12T23:52:48.864Z,8.07
2023-04-12T23:55:15.437Z,8.07
2023-04-12T23:57:42.230Z,8.08
